createdAt,value
2018-09-09T00:03:51.455Z,34.75
2018-09-09T00:08:54.948Z,34.22
2018-09-09T00:13:58.526Z,34.69
2018-09-09T00:19:02.000Z,34.26
2018-09-09T00:24:05.622Z,34.76
2018-09-09T00:29:09.073Z,34.32
2018-09-09T00:34:12.685Z,34.93
2018-09-09T00:39:16.154Z,34.62
2018-09-09T00:44:19.972Z,34.82
2018-09-09T00:49:29.030Z,34.61
2018-09-09T00:54:32.738Z,35.08
2018-09-09T00:59:36.342Z,35.27
2018-09-09T01:04:40.120Z,35.28
2018-09-09T01:09:43.691Z,35.04
2018-09-09T01:14:47.368Z,35.57
2018-09-09T01:19:50.841Z,35.61
2018-09-09T01:24:54.328Z,35.35
2018-09-09T01:29:58.032Z,35.44
2018-09-09T01:35:01.727Z,35.31
2018-09-09T01:40:05.242Z,35.44
2018-09-09T01:45:08.741Z,35.62
2018-09-09T01:50:12.395Z,36.06
2018-09-09T01:55:15.933Z,35.60
2018-09-09T02:00:19.433Z,36.33
2018-09-09T02:05:22.896Z,36.33
2018-09-09T02:10:26.358Z,36.35
2018-09-09T02:15:29.829Z,36.53
2018-09-09T02:20:33.304Z,37.10
2018-09-09T02:25:36.795Z,36.89
2018-09-09T02:30:40.350Z,36.75
2018-09-09T02:35:43.905Z,36.96
2018-09-09T02:40:47.388Z,36.70
2018-09-09T02:45:51.159Z,37.18
2018-09-09T02:50:54.726Z,37.02
2018-09-09T02:55:58.208Z,37.70
2018-09-09T03:01:01.793Z,37.68
2018-09-09T03:06:05.308Z,37.73
2018-09-09T03:11:13.838Z,37.62
2018-09-09T03:16:17.363Z,37.78
2018-09-09T03:21:20.913Z,37.79
2018-09-09T03:26:24.419Z,37.33
2018-09-09T03:31:27.941Z,38.00
2018-09-09T03:36:31.626Z,38.06
2018-09-09T03:41:35.571Z,37.74
2018-09-09T03:46:39.388Z,37.70
2018-09-09T03:51:42.877Z,38.02
2018-09-09T03:56:46.601Z,38.01
2018-09-09T04:01:50.162Z,38.17
2018-09-09T04:06:53.622Z,38.33
2018-09-09T04:11:57.275Z,38.35
2018-09-09T04:17:00.789Z,37.94
2018-09-09T04:22:04.402Z,38.16
2018-09-09T04:27:07.944Z,38.16
2018-09-09T04:32:11.485Z,37.90
2018-09-09T04:37:15.350Z,38.44
2018-09-09T04:42:18.909Z,38.78
2018-09-09T04:47:22.463Z,39.07
2018-09-09T04:52:25.959Z,38.97
2018-09-09T04:57:29.594Z,38.52
2018-09-09T05:02:33.329Z,38.72
2018-09-09T05:07:36.792Z,38.50
2018-09-09T05:12:40.380Z,38.56
2018-09-09T05:17:43.822Z,38.55
2018-09-09T05:22:47.406Z,38.99
2018-09-09T05:27:50.867Z,38.64
2018-09-09T05:32:54.352Z,38.52
2018-09-09T05:37:57.934Z,38.89
2018-09-09T05:43:01.646Z,38.67
2018-09-09T05:48:05.218Z,38.69
2018-09-09T05:53:08.696Z,38.59
2018-09-09T05:58:12.193Z,38.09
2018-09-09T06:03:15.669Z,38.52
2018-09-09T06:08:19.201Z,38.40
2018-09-09T06:13:24.708Z,38.49
2018-09-09T06:18:28.420Z,38.36
2018-09-09T06:23:32.011Z,38.34
2018-09-09T06:28:36.155Z,38.71
2018-09-09T06:33:39.730Z,39.15
2018-09-09T06:38:43.252Z,39.26
2018-09-09T06:43:46.783Z,39.25
2018-09-09T06:48:50.395Z,38.84
2018-09-09T06:53:53.945Z,38.61
2018-09-09T06:58:57.670Z,38.30
2018-09-09T07:04:01.427Z,38.47
2018-09-09T07:09:06.868Z,38.35
2018-09-09T07:14:10.359Z,38.52
2018-09-09T07:19:14.102Z,38.50
2018-09-09T07:24:17.676Z,39.24
2018-09-09T07:29:21.500Z,38.80
2018-09-09T07:34:25.248Z,38.55
2018-09-09T07:39:28.970Z,38.89
2018-09-09T07:44:32.478Z,38.71
2018-09-09T07:49:35.989Z,38.75
2018-09-09T07:54:39.682Z,38.87
2018-09-09T07:59:43.162Z,38.51
2018-09-09T08:04:46.649Z,39.18
2018-09-09T08:09:50.882Z,38.56
2018-09-09T08:14:54.392Z,38.42
2018-09-09T08:19:58.029Z,38.60
2018-09-09T08:25:01.619Z,38.25
2018-09-09T08:30:05.882Z,38.06
2018-09-09T08:35:09.405Z,37.93
2018-09-09T08:40:12.895Z,37.96
2018-09-09T08:45:16.380Z,37.97
2018-09-09T08:50:20.106Z,37.33
2018-09-09T08:55:23.589Z,36.86
2018-09-09T09:00:27.153Z,36.34
2018-09-09T09:05:30.695Z,36.95
2018-09-09T09:10:34.221Z,36.37
2018-09-09T09:15:37.892Z,36.09
2018-09-09T09:20:41.595Z,35.67
2018-09-09T09:25:52.819Z,35.21
2018-09-09T09:30:56.329Z,35.18
2018-09-09T09:35:59.850Z,35.32
2018-09-09T09:41:03.359Z,35.11
2018-09-09T09:46:07.460Z,35.11
2018-09-09T09:51:11.453Z,35.72
2018-09-09T09:56:14.933Z,35.53
2018-09-09T10:01:18.534Z,35.32
2018-09-09T10:06:22.038Z,35.38
2018-09-09T10:11:25.589Z,34.89
2018-09-09T10:16:29.133Z,34.66
2018-09-09T10:21:32.691Z,34.41
2018-09-09T10:26:36.192Z,34.88
2018-09-09T10:31:39.749Z,34.53
2018-09-09T10:36:43.261Z,34.91
2018-09-09T10:41:46.792Z,34.60
2018-09-09T10:46:50.496Z,33.46
2018-09-09T10:51:53.981Z,33.46
2018-09-09T10:56:57.432Z,33.13
2018-09-09T11:02:01.070Z,33.28
2018-09-09T11:07:04.833Z,33.62
2018-09-09T11:12:09.189Z,33.33
2018-09-09T11:17:12.912Z,33.40
2018-09-09T11:22:16.844Z,33.81
2018-09-09T11:27:20.350Z,33.63
2018-09-09T11:32:24.004Z,33.30
2018-09-09T11:37:27.471Z,32.50
2018-09-09T11:42:31.074Z,33.08
2018-09-09T11:47:35.047Z,32.95
2018-09-09T11:52:38.576Z,32.83
2018-09-09T11:57:42.085Z,33.10
2018-09-09T12:02:45.658Z,32.23
2018-09-09T12:07:49.157Z,31.70
2018-09-09T12:12:52.607Z,31.90
2018-09-09T12:17:56.425Z,31.76
2018-09-09T12:23:00.113Z,32.19
2018-09-09T12:28:04.015Z,32.17
2018-09-09T12:33:07.601Z,32.88
2018-09-09T12:38:10.866Z,32.95
2018-09-09T12:43:19.649Z,33.18
2018-09-09T12:51:40.795Z,33.82
2018-09-09T12:56:44.084Z,33.63
2018-09-09T13:01:47.428Z,33.46
2018-09-09T13:06:50.815Z,33.69
2018-09-09T13:11:54.104Z,34.00
2018-09-09T13:16:57.403Z,33.31
2018-09-09T13:22:24.858Z,33.40
2018-09-09T13:55:36.818Z,35.30
2018-09-09T14:00:40.098Z,35.58
2018-09-09T14:09:34.877Z,34.79
2018-09-09T14:14:38.238Z,34.97
2018-09-09T14:19:41.655Z,34.45
2018-09-09T14:24:44.951Z,35.00
2018-09-09T14:29:48.370Z,34.22
2018-09-09T14:34:51.673Z,34.14
2018-09-09T14:39:54.960Z,34.94
2018-09-09T14:44:58.243Z,34.66
2018-09-09T14:50:01.563Z,35.18
2018-09-09T14:55:05.335Z,35.16
2018-09-09T15:00:08.651Z,35.17
2018-09-09T15:05:11.935Z,35.63
2018-09-09T15:10:15.230Z,35.36
2018-09-09T15:15:18.514Z,35.79
2018-09-09T15:20:21.813Z,34.87
2018-09-09T15:25:25.204Z,34.87
2018-09-09T15:30:28.487Z,35.81
2018-09-09T15:35:31.779Z,35.21
2018-09-09T15:40:35.054Z,34.58
2018-09-09T15:45:38.469Z,34.83
2018-09-09T15:50:41.742Z,34.50
2018-09-09T15:55:45.178Z,35.07
2018-09-09T16:00:48.467Z,35.25
2018-09-09T16:05:51.982Z,35.55
2018-09-09T16:10:56.193Z,35.85
2018-09-09T16:15:59.534Z,35.47
2018-09-09T16:21:02.839Z,36.02
2018-09-09T16:26:06.133Z,35.37
2018-09-09T16:31:09.442Z,34.89
2018-09-09T16:36:12.754Z,34.33
2018-09-09T16:41:16.082Z,35.22
2018-09-09T16:46:20.519Z,35.34
2018-09-09T16:51:23.842Z,34.80
2018-09-09T16:56:27.182Z,35.30
2018-09-09T17:01:30.749Z,34.54
2018-09-09T17:06:34.171Z,34.94
2018-09-09T17:11:37.682Z,35.28
2018-09-09T17:16:40.992Z,35.80
2018-09-09T17:21:44.315Z,36.18
2018-09-09T17:26:47.707Z,35.64
2018-09-09T17:37:18.691Z,35.58
2018-09-09T17:42:22.003Z,35.57
2018-09-09T17:47:25.383Z,35.52
2018-09-09T17:52:28.738Z,35.37
2018-09-09T17:57:32.049Z,35.26
2018-09-09T18:02:35.417Z,34.91
2018-09-09T18:07:38.826Z,35.62
2018-09-09T18:12:42.131Z,35.70
2018-09-09T18:17:45.444Z,35.10
2018-09-09T18:22:48.803Z,35.36
2018-09-09T18:27:52.107Z,35.77
2018-09-09T18:32:55.412Z,35.98
2018-09-09T18:37:58.730Z,36.07
2018-09-09T18:43:02.192Z,36.02
2018-09-09T18:48:05.610Z,35.63
2018-09-09T18:53:09.095Z,36.17
2018-09-09T18:58:12.406Z,36.08
2018-09-09T19:03:15.719Z,36.43
2018-09-09T19:08:19.039Z,36.13
2018-09-09T19:13:22.363Z,36.71
2018-09-09T19:18:25.680Z,36.94
2018-09-09T19:23:28.976Z,37.17
2018-09-09T19:28:32.290Z,36.96
2018-09-09T19:33:35.630Z,36.84
2018-09-09T19:38:38.934Z,37.35
2018-09-09T19:43:42.239Z,37.35
2018-09-09T19:48:45.536Z,37.56
2018-09-09T19:53:48.842Z,37.69
2018-09-09T19:58:52.142Z,37.44
2018-09-09T20:03:55.433Z,38.02
2018-09-09T20:08:58.742Z,37.56
2018-09-09T20:14:02.124Z,37.40
2018-09-09T20:19:05.750Z,37.53
2018-09-09T20:24:09.099Z,37.83
2018-09-09T20:29:12.409Z,37.39
2018-09-09T20:34:15.683Z,37.69
2018-09-09T20:39:18.967Z,37.88
2018-09-09T20:44:22.260Z,37.88
2018-09-09T20:49:25.551Z,37.82
2018-09-09T20:54:28.831Z,37.46
2018-09-09T20:59:32.118Z,37.43
2018-09-09T21:04:35.431Z,37.55
2018-09-09T21:09:38.736Z,37.90
2018-09-09T21:14:42.023Z,38.07
2018-09-09T21:19:45.314Z,37.48
2018-09-09T21:24:48.588Z,37.80
2018-09-09T21:29:51.995Z,38.04
2018-09-09T21:34:55.450Z,37.65
2018-09-09T21:39:58.742Z,37.99
2018-09-09T21:45:02.044Z,37.78
2018-09-09T21:50:06.200Z,37.59
2018-09-09T21:55:09.489Z,37.96
2018-09-09T22:00:13.630Z,38.07
2018-09-09T22:05:17.238Z,37.63
2018-09-09T22:10:20.653Z,37.57
2018-09-09T22:15:24.059Z,37.47
2018-09-09T22:20:27.378Z,37.85
2018-09-09T22:25:30.838Z,37.88
2018-09-09T22:30:34.342Z,37.65
2018-09-09T22:35:37.762Z,37.70
2018-09-09T22:40:41.039Z,37.54
2018-09-09T22:45:44.439Z,37.49
2018-09-09T22:50:48.066Z,37.63
2018-09-09T22:55:51.506Z,37.54
2018-09-09T23:00:54.837Z,37.71
2018-09-09T23:05:58.109Z,37.68
2018-09-09T23:11:01.382Z,37.42
2018-09-09T23:16:04.662Z,37.62
2018-09-09T23:21:07.946Z,37.29
2018-09-09T23:26:11.230Z,37.46
2018-09-09T23:31:20.817Z,37.48
2018-09-09T23:36:24.091Z,37.89
2018-09-09T23:41:27.378Z,38.33
2018-09-09T23:46:30.662Z,38.23
2018-09-09T23:51:33.942Z,38.33
2018-09-09T23:56:37.231Z,37.85
